Lakeview, Michigan
Current Conditions -  °F | °C
As of 2:14 PM on Friday 24 Oct 2014 (Local Time) from KRQB Reporting Station
Haze Haze  
Wind Chill: 54°   Ceiling: 1100
Heat Index: 54°   Visibility: 5mi
Dew Point: 53°   Wind: 8mph
Humidity: 97%   Direction: 270°W
Pressure: 29.99"   Gusts: NA
Location:  43.45°N, 85.27°W
Report Text: KRQB 241814Z AUTO 27007KT 5SM BR OVC011 12/12 A2999 RMK AO2 T01220118
Loading
Personal Weather Stations






























Interactive Weather Map
Tropical Storm Tracking
New forecast layout! Learn more

10-Day Weather Forecast

Advertisements
Track Severe Weather on mobile